Time;durP1;ratioP1;P1;durP2;ratioP2;P2;SDS_P1;SDS_P2;PMS_P1;PMS_P2;Temp;Humidity;BMP_temperature;BMP_pressure;BME280_temperature;BME280_humidity;BME280_pressure;Samples;Min_cycle;Max_cycle;Signal;HPM_P1;HPM_P2
2023/11/20 00:01:10;;;;;;;1999.90;999.90;;;;;;;-1.11;76.22;96116.28;5113036;28;20097;-64
2023/11/20 00:03:38;;;;;;;1999.90;999.90;;;;;;;-1.01;76.97;96115.44;5113005;28;20043;-60
2023/11/20 00:06:07;;;;;;;1999.90;999.90;;;;;;;-0.93;76.67;96121.41;5112792;28;20134;-62
2023/11/20 00:08:35;;;;;;;1999.90;999.90;;;;;;;-0.90;76.27;96121.41;5112913;28;20058;-64
2023/11/20 00:11:03;;;;;;;1999.90;999.90;;;;;;;-0.94;76.12;96116.28;5113037;28;20054;-63
2023/11/20 00:13:30;;;;;;;1999.90;999.90;;;;;;;-0.94;76.06;96117.16;5112969;28;20055;-63
2023/11/20 00:15:57;;;;;;;1999.90;999.90;;;;;;;-0.95;75.97;96122.28;5113889;28;20039;-63
2023/11/20 00:18:24;;;;;;;1999.90;999.90;;;;;;;-0.94;75.89;96130.00;5116615;28;20048;-65
2023/11/20 00:20:51;;;;;;;1999.90;999.90;;;;;;;-0.89;76.09;96137.69;5116748;28;20044;-62
2023/11/20 00:23:18;;;;;;;1999.90;999.90;;;;;;;-0.89;75.56;96145.41;5116703;28;20048;-60
2023/11/20 00:25:47;;;;;;;1999.90;999.90;;;;;;;-0.83;75.16;96141.97;5116372;28;20397;-62
2023/11/20 00:28:14;;;;;;;1999.90;999.90;;;;;;;-0.92;75.49;96147.97;5116466;28;20093;-62
2023/11/20 00:30:41;;;;;;;1999.90;999.90;;;;;;;-0.94;75.40;96147.97;5116353;28;20059;-64
2023/11/20 00:33:09;;;;;;;1999.90;999.90;;;;;;;-1.01;75.48;96138.53;5116347;28;20051;-61
2023/11/20 00:35:36;;;;;;;1999.90;999.90;;;;;;;-1.05;75.76;96127.41;5116363;28;20128;-62
2023/11/20 00:38:04;;;;;;;1999.90;999.90;;;;;;;-1.11;75.68;96127.41;5116337;28;20052;-62
2023/11/20 00:40:32;;;;;;;1999.90;999.90;;;;;;;-1.22;75.98;96134.22;5116275;28;20087;-62
2023/11/20 00:43:01;;;;;;;1999.90;999.90;;;;;;;-1.20;76.09;96137.66;5116215;28;20130;-61
2023/11/20 00:45:28;;;;;;;1999.90;999.90;;;;;;;-1.19;76.38;96147.06;5116381;28;20066;-62
2023/11/20 00:47:55;;;;;;;1999.90;999.90;;;;;;;-1.16;76.57;96157.34;5116164;27;20439;-62
2023/11/20 00:50:22;;;;;;;1999.90;999.90;;;;;;;-1.05;76.94;96145.38;5115901;28;20048;-62
2023/11/20 00:52:49;;;;;;;1999.90;999.90;;;;;;;-1.06;76.70;96145.38;5116094;28;20050;-60
2023/11/20 00:55:17;;;;;;;1999.90;999.90;;;;;;;-1.04;77.05;96141.97;5115908;28;20048;-62
2023/11/20 00:57:44;;;;;;;1999.90;999.90;;;;;;;-0.95;76.86;96138.56;5115869;27;20043;-63
2023/11/20 01:00:14;;;;;;;1999.90;999.90;;;;;;;-0.86;77.04;96144.53;5115881;28;20101;-63
2023/11/20 01:02:42;;;;;;;1999.90;999.90;;;;;;;-0.83;77.03;96140.28;5115922;28;20055;-62
2023/11/20 01:05:10;;;;;;;1999.90;999.90;;;;;;;-0.79;76.75;96130.84;5115675;28;20560;-62
2023/11/20 01:07:37;;;;;;;1999.90;999.90;;;;;;;-0.78;76.28;96115.44;5115657;28;20104;-62
2023/11/20 01:10:05;;;;;;;1999.90;999.90;;;;;;;-0.76;76.24;96125.72;5115491;28;20054;-62
2023/11/20 01:12:32;;;;;;;1999.90;999.90;;;;;;;-0.82;76.21;96121.44;5115631;28;20043;-64
2023/11/20 01:14:59;;;;;;;1999.90;999.90;;;;;;;-0.80;76.29;96114.59;5115569;28;20135;-60
2023/11/20 01:17:28;;;;;;;1999.90;999.90;;;;;;;-0.80;76.10;96118.88;5115582;27;20116;-64
2023/11/20 01:19:55;;;;;;;1999.90;999.90;;;;;;;-0.78;76.16;96104.31;5115407;28;20454;-62
2023/11/20 01:22:22;;;;;;;1999.90;999.90;;;;;;;-0.79;76.26;96108.59;5115527;28;20039;-63
2023/11/20 01:24:50;;;;;;;1999.90;999.90;;;;;;;-0.77;76.09;96103.47;5115358;27;20063;-64
2023/11/20 01:27:17;;;;;;;1999.90;999.90;;;;;;;-0.75;75.84;96106.88;5115069;28;20048;-64
2023/11/20 01:29:44;;;;;;;1999.90;999.90;;;;;;;-0.71;75.71;96103.47;5115214;28;20055;-64
2023/11/20 01:32:11;;;;;;;1999.90;999.90;;;;;;;-0.66;75.53;96100.88;5115303;28;20043;-59
2023/11/20 01:34:40;;;;;;;1999.90;999.90;;;;;;;-0.68;75.08;96108.59;5115315;28;20073;-63
2023/11/20 01:37:09;;;;;;;1999.90;999.90;;;;;;;-0.74;75.10;96111.16;5115240;28;20122;-63
2023/11/20 01:39:38;;;;;;;1999.90;999.90;;;;;;;-0.72;74.94;96109.44;5115212;28;20043;-63
2023/11/20 01:42:06;;;;;;;1999.90;999.90;;;;;;;-0.85;75.33;96097.47;5115110;28;20120;-64
2023/11/20 01:44:33;;;;;;;1999.90;999.90;;;;;;;-0.79;75.10;96100.88;5115100;28;20055;-63
2023/11/20 01:47:02;;;;;;;1999.90;999.90;;;;;;;-0.82;74.85;96094.88;5114922;28;20492;-62
2023/11/20 01:49:30;;;;;;;1999.90;999.90;;;;;;;-0.91;75.39;96099.16;5114980;28;20062;-63
2023/11/20 01:52:00;;;;;;;1999.90;999.90;;;;;;;-0.91;75.57;96096.59;5114910;28;20047;-63
2023/11/20 01:54:28;;;;;;;1999.90;999.90;;;;;;;-0.87;75.58;96106.88;5114758;28;20047;-64
2023/11/20 01:56:56;;;;;;;1999.90;999.90;;;;;;;-0.85;75.45;96113.72;5114651;28;20409;-64
2023/11/20 01:59:23;;;;;;;1999.90;999.90;;;;;;;-0.94;75.39;96114.56;5114680;28;20044;-62
2023/11/20 02:01:50;;;;;;;1999.90;999.90;;;;;;;-0.98;76.05;96106.88;5114692;28;20077;-63
2023/11/20 02:04:19;;;;;;;1999.90;999.90;;;;;;;-1.02;76.77;96118.88;5114623;28;20043;-64
2023/11/20 02:06:46;;;;;;;1999.90;999.90;;;;;;;-0.92;77.19;96122.28;5114375;28;20044;-62
2023/11/20 02:09:16;;;;;;;1999.90;999.90;;;;;;;-0.90;77.42;96125.72;5114612;28;20048;-64
2023/11/20 02:11:45;;;;;;;1999.90;999.90;;;;;;;-0.86;77.27;96132.56;5114668;28;20122;-64
2023/11/20 02:14:13;;;;;;;1999.90;999.90;;;;;;;-0.83;78.10;96121.44;5114443;28;20040;-63
2023/11/20 02:16:41;;;;;;;1999.90;999.90;;;;;;;-0.74;77.94;96129.16;5114322;28;20129;-62
2023/11/20 02:19:14;;;;;;;1999.90;999.90;;;;;;;-0.66;78.31;96135.13;5114291;28;20124;-62
2023/11/20 02:21:42;;;;;;;1999.90;999.90;;;;;;;-0.57;78.49;96148.84;5114430;28;20059;-64
2023/11/20 02:24:10;;;;;;;1999.90;999.90;;;;;;;-0.51;78.83;96136.00;5114235;28;20386;-65
2023/11/20 02:26:52;;;;;;;1999.90;999.90;;;;;;;-0.53;78.31;96128.28;5114212;28;20047;-64
2023/11/20 02:29:25;;;;;;;1999.90;999.90;;;;;;;-0.47;79.09;96116.28;5114153;28;20134;-64
2023/11/20 02:31:54;;;;;;;1999.90;999.90;;;;;;;-0.45;79.40;96119.72;5114013;28;20497;-61
2023/11/20 02:34:21;;;;;;;1999.90;999.90;;;;;;;-0.37;79.18;96106.84;5114097;28;20405;-64
2023/11/20 02:36:48;;;;;;;1999.90;999.90;;;;;;;-0.35;79.29;96105.13;5114080;28;20473;-62
2023/11/20 02:39:15;;;;;;;1999.90;999.90;;;;;;;-0.28;79.29;96110.25;5113396;28;20051;-62
2023/11/20 02:41:43;;;;;;;1999.90;999.90;;;;;;;-0.26;78.77;96100.84;5113880;28;20097;-61
2023/11/20 02:44:10;;;;;;;1999.90;999.90;;;;;;;-0.24;78.77;96087.94;5113797;28;20135;-62
2023/11/20 02:46:37;;;;;;;1999.90;999.90;;;;;;;-0.36;79.39;96088.84;5113759;28;20090;-64
2023/11/20 02:49:05;;;;;;;1999.90;999.90;;;;;;;-0.41;79.69;96076.00;5113901;28;20040;-62
2023/11/20 02:51:32;;;;;;;1999.90;999.90;;;;;;;-0.45;79.90;96074.28;5113795;28;20051;-62
2023/11/20 02:53:59;;;;;;;1999.90;999.90;;;;;;;-0.37;79.64;96063.16;5113737;28;20417;-62
2023/11/20 02:56:26;;;;;;;1999.90;999.90;;;;;;;-0.43;79.55;96067.44;5113698;28;20052;-62
2023/11/20 02:58:55;;;;;;;1999.90;999.90;;;;;;;-0.46;79.44;96064.88;5113563;28;20489;-63
2023/11/20 03:01:22;;;;;;;1999.90;999.90;;;;;;;-0.44;79.34;96060.59;5113628;28;20050;-64
2023/11/20 03:03:49;;;;;;;1999.90;999.90;;;;;;;-0.49;79.47;96058.91;5113728;28;20127;-65
2023/11/20 03:06:20;;;;;;;1999.90;999.90;;;;;;;-0.57;79.41;96061.47;5113546;28;20065;-60
2023/11/20 03:08:49;;;;;;;1999.90;999.90;;;;;;;-0.49;79.51;96062.31;5113715;28;20048;-64
2023/11/20 03:11:17;;;;;;;1999.90;999.90;;;;;;;-0.52;79.14;96064.88;5113414;28;20501;-61
2023/11/20 03:13:45;;;;;;;1999.90;999.90;;;;;;;-0.55;79.06;96064.88;5113558;28;20040;-65
2023/11/20 03:16:12;;;;;;;1999.90;999.90;;;;;;;-0.49;78.89;96052.03;5113467;28;20665;-62
2023/11/20 03:18:40;;;;;;;1999.90;999.90;;;;;;;-0.50;78.80;96052.91;5113495;28;20067;-62
2023/11/20 03:21:07;;;;;;;1999.90;999.90;;;;;;;-0.52;78.80;96052.03;5113570;28;20096;-64
2023/11/20 03:23:35;;;;;;;1999.90;999.90;;;;;;;-0.52;78.77;96052.03;5113343;28;20135;-64
2023/11/20 03:26:02;;;;;;;1999.90;999.90;;;;;;;-0.48;78.52;96047.75;5113511;28;20123;-64
2023/11/20 03:28:29;;;;;;;1999.90;999.90;;;;;;;-0.45;78.77;96033.16;5113329;28;20056;-65
2023/11/20 03:30:56;;;;;;;1999.90;999.90;;;;;;;-0.41;78.31;96034.03;5113309;28;20052;-62
2023/11/20 03:33:23;;;;;;;1999.90;999.90;;;;;;;-0.43;78.36;96036.59;5113479;28;20100;-62
2023/11/20 03:35:50;;;;;;;1999.90;999.90;;;;;;;-0.40;77.89;96043.44;5113394;28;20043;-61
2023/11/20 03:38:17;;;;;;;1999.90;999.90;;;;;;;-0.43;77.67;96038.31;5113269;28;20481;-62
2023/11/20 03:40:45;;;;;;;1999.90;999.90;;;;;;;-0.53;78.38;96027.19;5113271;28;20083;-63
2023/11/20 03:43:14;;;;;;;1999.90;999.90;;;;;;;-0.54;78.27;96026.34;5113342;28;20048;-63
2023/11/20 03:45:41;;;;;;;1999.90;999.90;;;;;;;-0.52;78.37;96023.75;5113244;28;20054;-62
2023/11/20 03:48:08;;;;;;;1999.90;999.90;;;;;;;-0.51;78.63;96023.75;5113317;28;20044;-64
2023/11/20 03:50:35;;;;;;;1999.90;999.90;;;;;;;-0.56;78.75;96014.34;5115016;28;20048;-61
2023/11/20 03:53:02;;;;;;;1999.90;999.90;;;;;;;-0.54;79.58;96010.91;5117090;28;20501;-64
2023/11/20 03:55:29;;;;;;;1999.90;999.90;;;;;;;-0.47;79.82;96013.47;5117158;28;20055;-64
2023/11/20 03:57:58;;;;;;;1999.90;999.90;;;;;;;-0.38;79.55;96013.44;5117105;28;20507;-63
2023/11/20 04:00:25;;;;;;;1999.90;999.90;;;;;;;-0.36;80.00;96010.88;5117182;28;20048;-62
2023/11/20 04:02:52;;;;;;;1999.90;999.90;;;;;;;-0.28;80.36;96011.69;5117121;28;20079;-62
2023/11/20 04:05:20;;;;;;;1999.90;999.90;;;;;;;-0.29;80.02;96013.44;5116841;28;20083;-63
2023/11/20 04:07:47;;;;;;;1999.90;999.90;;;;;;;-0.25;79.10;96019.41;5116738;28;20055;-62
2023/11/20 04:10:14;;;;;;;1999.90;999.90;;;;;;;-0.22;79.05;96015.94;5116746;28;20043;-61
2023/11/20 04:12:41;;;;;;;1999.90;999.90;;;;;;;-0.24;78.79;96018.53;5116924;27;20047;-62
2023/11/20 04:15:11;;;;;;;1999.90;999.90;;;;;;;-0.20;78.75;96029.69;5116680;28;20096;-65
2023/11/20 04:17:38;;;;;;;1999.90;999.90;;;;;;;-0.19;78.28;96018.53;5116622;28;20046;-61
2023/11/20 04:20:06;;;;;;;1999.90;999.90;;;;;;;-0.31;79.20;96024.56;5116593;28;20484;-64
2023/11/20 04:22:33;;;;;;;1999.90;999.90;;;;;;;-0.29;79.42;96028.84;5116636;28;20039;-61
2023/11/20 04:25:01;;;;;;;1999.90;999.90;;;;;;;-0.32;79.33;96031.44;5116433;28;20051;-61
2023/11/20 04:27:28;;;;;;;1999.90;999.90;;;;;;;-0.38;78.84;96023.72;5116466;28;20096;-64
2023/11/20 04:29:55;;;;;;;1999.90;999.90;;;;;;;-0.33;79.38;96029.69;5116467;28;20050;-65
2023/11/20 04:32:24;;;;;;;1999.90;999.90;;;;;;;-0.34;79.87;96022.84;5116335;28;20134;-64
2023/11/20 04:34:51;;;;;;;1999.90;999.90;;;;;;;-0.40;81.12;96021.16;5116434;28;20079;-63
2023/11/20 04:37:19;;;;;;;1999.90;999.90;;;;;;;-0.30;81.99;96021.16;5116259;28;20071;-62
2023/11/20 04:39:46;;;;;;;1999.90;999.90;;;;;;;-0.25;82.28;96016.81;5116319;28;20501;-63
2023/11/20 04:42:15;;;;;;;1999.90;999.90;;;;;;;-0.23;82.31;96025.41;5116249;28;20089;-63
2023/11/20 04:44:42;;;;;;;1999.90;999.90;;;;;;;-0.15;82.60;96027.97;5116202;28;20047;-62
2023/11/20 04:47:09;;;;;;;1999.90;999.90;;;;;;;-0.05;83.09;96016.78;5115969;28;20055;-61
2023/11/20 04:49:39;;;;;;;1999.90;999.90;;;;;;;0.02;82.16;96020.16;5116124;28;20058;-62
2023/11/20 04:52:08;;;;;;;1999.90;999.90;;;;;;;0.02;81.76;96033.00;5115950;28;20052;-61
2023/11/20 04:54:36;;;;;;;1999.90;999.90;;;;;;;0.05;81.63;96039.84;5116008;28;20079;-63
2023/11/20 04:57:03;;;;;;;1999.90;999.90;;;;;;;0.12;80.54;96057.00;5115881;28;20043;-63
2023/11/20 04:59:31;;;;;;;1999.90;999.90;;;;;;;0.16;79.47;96053.53;5115864;28;20113;-62
2023/11/20 05:01:58;;;;;;;1999.90;999.90;;;;;;;0.16;79.44;96045.81;5115077;28;20051;-63
2023/11/20 05:04:25;;;;;;;1999.90;999.90;;;;;;;0.13;79.02;96040.69;5115784;28;20488;-62
2023/11/20 05:06:54;;;;;;;1999.90;999.90;;;;;;;0.17;79.03;96039.81;5115508;28;20047;-64
2023/11/20 05:09:23;;;;;;;1999.90;999.90;;;;;;;0.16;78.95;96038.09;5115718;28;20054;-62
2023/11/20 05:11:51;;;;;;;1999.90;999.90;;;;;;;0.17;78.88;96041.50;5115611;28;20047;-64
2023/11/20 05:14:19;;;;;;;1999.90;999.90;;;;;;;0.17;79.15;96038.94;5115664;28;20044;-60
2023/11/20 05:16:49;;;;;;;1999.90;999.90;;;;;;;0.19;79.35;96048.38;5115719;28;20054;-61
2023/11/20 05:19:16;;;;;;;1999.90;999.90;;;;;;;0.17;79.40;96047.53;5115792;28;20541;-62
2023/11/20 05:21:44;;;;;;;1999.90;999.90;;;;;;;0.18;79.54;96049.22;5115447;28;20138;-62
2023/11/20 05:24:13;;;;;;;1999.90;999.90;;;;;;;0.20;79.44;96034.66;5115555;28;20123;-63
2023/11/20 05:26:41;;;;;;;1999.90;999.90;;;;;;;0.15;79.76;96035.53;5115323;28;20125;-64
2023/11/20 05:29:08;;;;;;;1999.90;999.90;;;;;;;0.18;79.88;96035.53;5115352;28;20446;-63
2023/11/20 05:31:35;;;;;;;1999.90;999.90;;;;;;;0.23;79.78;96036.34;5115316;28;20052;-65
2023/11/20 05:34:02;;;;;;;1999.90;999.90;;;;;;;0.15;79.28;96038.94;5115341;28;20055;-65
2023/11/20 05:36:30;;;;;;;1999.90;999.90;;;;;;;0.18;79.63;96038.94;5115186;28;20048;-64
2023/11/20 05:38:57;;;;;;;1999.90;999.90;;;;;;;0.22;79.72;96037.22;5115198;28;20052;-63
2023/11/20 05:41:26;;;;;;;1999.90;999.90;;;;;;;0.19;79.67;96040.66;5115022;28;20550;-61
2023/11/20 05:43:53;;;;;;;1999.90;999.90;;;;;;;0.27;79.82;96045.75;5115042;28;20073;-63
2023/11/20 05:46:20;;;;;;;1999.90;999.90;;;;;;;0.32;79.88;96038.00;5114960;28;20043;-64
2023/11/20 05:48:47;;;;;;;1999.90;999.90;;;;;;;0.42;79.64;96038.81;5114816;28;20489;-64
2023/11/20 05:51:18;;;;;;;1999.90;999.90;;;;;;;0.37;80.35;96039.69;5114854;28;20048;-64
2023/11/20 05:53:45;;;;;;;1999.90;999.90;;;;;;;0.53;81.10;96023.31;5114827;28;20435;-65
2023/11/20 05:56:13;;;;;;;1999.90;999.90;;;;;;;1.55;80.88;96037.06;5114768;28;20086;-64
2023/11/20 05:58:42;;;;;;;1999.90;999.90;;;;;;;3.22;74.86;96052.91;5114823;28;20125;-61
2023/11/20 06:01:09;;;;;;;1999.90;999.90;;;;;;;4.92;66.56;96053.94;5114694;28;20048;-64
2023/11/20 06:03:37;;;;;;;1999.90;999.90;;;;;;;6.31;62.82;96053.84;5114581;28;20047;-62
2023/11/20 06:06:05;;;;;;;1999.90;999.90;;;;;;;8.08;57.24;96063.88;5114361;28;20093;-63
2023/11/20 06:08:32;;;;;;;1999.90;999.90;;;;;;;9.92;51.22;96061.16;5114540;27;20055;-64
2023/11/20 06:11:00;;;;;;;1999.90;999.90;;;;;;;11.47;47.72;96068.13;5114424;28;20496;-62
2023/11/20 06:13:27;;;;;;;1999.90;999.90;;;;;;;12.76;43.38;96077.28;5113563;28;20070;-63
2023/11/20 06:15:56;;;;;;;1999.90;999.90;;;;;;;14.01;40.55;96078.25;5114429;28;20055;-64
2023/11/20 06:18:23;;;;;;;1999.90;999.90;;;;;;;15.16;39.23;96070.44;5114447;28;20048;-62
2023/11/20 06:20:50;;;;;;;1999.90;999.90;;;;;;;16.24;37.26;96088.97;5114557;28;20044;-64
2023/11/20 06:23:18;;;;;;;1999.90;999.90;;;;;;;17.28;35.02;96087.03;5114218;28;20048;-64
2023/11/20 06:25:46;;;;;;;1999.90;999.90;;;;;;;17.96;34.29;96083.00;5114377;28;20120;-61
2023/11/20 06:28:13;;;;;;;1999.90;999.90;;;;;;;18.21;33.26;96090.94;5114221;28;20047;-61
2023/11/20 06:30:40;;;;;;;1999.90;999.90;;;;;;;17.76;33.31;96095.94;5114158;28;20550;-64
2023/11/20 06:33:09;;;;;;;1999.90;999.90;;;;;;;18.08;33.28;96101.56;5114223;28;20070;-64
2023/11/20 06:35:36;;;;;;;1999.90;999.90;;;;;;;18.93;32.45;96108.31;5114080;28;20058;-63
2023/11/20 06:38:04;;;;;;;1999.90;999.90;;;;;;;20.03;30.48;96110.28;5114003;28;20390;-65
2023/11/20 06:40:31;;;;;;;1999.90;999.90;;;;;;;20.19;29.92;96101.84;5114002;28;20044;-62
2023/11/20 06:42:58;;;;;;;1999.90;999.90;;;;;;;19.83;31.22;96095.00;5113957;28;20526;-61
2023/11/20 06:45:26;;;;;;;1999.90;999.90;;;;;;;20.33;30.81;96104.22;5113826;28;20096;-64
2023/11/20 06:47:53;;;;;;;1999.90;999.90;;;;;;;19.79;31.58;96113.97;5113798;28;20480;-64
2023/11/20 06:50:21;;;;;;;1999.90;999.90;;;;;;;19.50;31.41;96101.28;5113710;28;20040;-62
2023/11/20 06:52:49;;;;;;;1999.90;999.90;;;;;;;19.74;30.96;96098.41;5113837;28;20051;-63
2023/11/20 06:55:17;;;;;;;1999.90;999.90;;;;;;;19.72;31.24;96104.84;5113702;28;20455;-63
2023/11/20 06:57:45;;;;;;;1999.90;999.90;;;;;;;18.83;33.22;96096.78;5113842;28;20047;-64
2023/11/20 07:00:13;;;;;;;1999.90;999.90;;;;;;;17.63;34.64;96095.16;5113699;28;20067;-62
2023/11/20 07:02:42;;;;;;;1999.90;999.90;;;;;;;16.74;36.32;96090.88;5113713;28;20126;-62
2023/11/20 07:05:11;;;;;;;1999.90;999.90;;;;;;;16.10;36.93;96095.19;5113655;28;20051;-61
2023/11/20 07:07:50;;;;;;;1999.90;999.90;;;;;;;15.19;38.38;96084.34;5113478;28;20048;-63
2023/11/20 07:10:22;;;;;;;1999.90;999.90;;;;;;;14.37;40.42;96088.44;5113639;28;20048;-62
2023/11/20 07:12:49;;;;;;;1999.90;999.90;;;;;;;13.47;42.09;96094.47;5113440;28;20584;-63
2023/11/20 07:15:17;;;;;;;1999.90;999.90;;;;;;;13.11;43.91;96092.06;5113662;28;20044;-62
2023/11/20 07:17:45;;;;;;;1999.90;999.90;;;;;;;12.53;44.99;96078.53;5113449;28;20044;-64
2023/11/20 07:20:13;;;;;;;1999.90;999.90;;;;;;;11.80;46.42;96067.34;5113489;28;20492;-60
2023/11/20 07:22:42;;;;;;;1999.90;999.90;;;;;;;11.09;48.04;96079.53;5113505;28;20075;-62
2023/11/20 07:25:09;;;;;;;1999.90;999.90;;;;;;;10.55;49.64;96078.47;5114863;28;20058;-62
2023/11/20 07:27:37;;;;;;;1999.90;999.90;;;;;;;10.02;51.39;96052.00;5117697;28;20516;-64
2023/11/20 07:30:07;;;;;;;1999.90;999.90;;;;;;;9.52;52.34;96064.56;5117582;28;20126;-63
2023/11/20 07:32:35;;;;;;;1999.90;999.90;;;;;;;9.10;53.78;96055.78;5117535;28;20134;-61
2023/11/20 07:35:03;;;;;;;1999.90;999.90;;;;;;;9.25;55.95;96064.75;5117734;28;20086;-62
2023/11/20 07:37:30;;;;;;;1999.90;999.90;;;;;;;10.69;54.10;96071.78;5117546;28;20043;-63
2023/11/20 07:40:00;;;;;;;1999.90;999.90;;;;;;;11.44;50.53;96057.81;5117472;28;20083;-63
2023/11/20 07:42:27;;;;;;;1999.90;999.90;;;;;;;11.20;49.47;96058.91;5117352;28;20047;-64
2023/11/20 07:44:55;;;;;;;1999.90;999.90;;;;;;;11.02;50.36;96063.28;5117345;28;20054;-64
2023/11/20 07:47:22;;;;;;;1999.90;999.90;;;;;;;11.50;50.11;96073.22;5117397;28;20048;-65
2023/11/20 07:49:49;;;;;;;1999.90;999.90;;;;;;;11.77;50.08;96058.81;5117312;28;20048;-62
2023/11/20 07:52:17;;;;;;;1999.90;999.90;;;;;;;12.18;49.28;96075.97;5117292;28;20083;-63
2023/11/20 07:54:44;;;;;;;1999.90;999.90;;;;;;;12.85;48.48;96070.69;5117096;28;20094;-65
2023/11/20 07:57:15;;;;;;;1999.90;999.90;;;;;;;13.66;46.07;96064.56;5117137;28;20051;-65
2023/11/20 07:59:42;;;;;;;1999.90;999.90;;;;;;;14.51;43.44;96069.19;5117085;28;20075;-63
2023/11/20 08:02:09;;;;;;;1999.90;999.90;;;;;;;15.20;44.36;96049.97;5117262;28;20112;-65
2023/11/20 08:04:36;;;;;;;1999.90;999.90;;;;;;;16.85;40.58;96071.59;5116946;28;20044;-63
2023/11/20 08:07:04;;;;;;;1999.90;999.90;;;;;;;18.31;35.72;96060.16;5116793;28;20066;-64
2023/11/20 08:09:31;;;;;;;1999.90;999.90;;;;;;;19.90;35.09;96073.28;5116947;28;20154;-64
2023/11/20 08:11:59;;;;;;;1999.90;999.90;;;;;;;20.99;33.80;96081.88;5116644;28;20060;-64
2023/11/20 08:14:27;;;;;;;1999.90;999.90;;;;;;;21.52;32.59;96087.91;5116734;28;20130;-61
2023/11/20 08:16:56;;;;;;;1999.90;999.90;;;;;;;21.67;30.00;96083.84;5116748;28;20044;-63
2023/11/20 08:19:24;;;;;;;1999.90;999.90;;;;;;;20.12;33.59;96059.06;5116831;28;20058;-64
2023/11/20 08:21:51;;;;;;;1999.90;999.90;;;;;;;19.37;33.29;96054.56;5116917;28;20105;-63
2023/11/20 08:24:18;;;;;;;1999.90;999.90;;;;;;;19.17;33.81;96058.81;5116619;28;20075;-63
2023/11/20 08:26:46;;;;;;;1999.90;999.90;;;;;;;19.22;31.29;96056.63;5116671;28;20134;-62
2023/11/20 08:29:16;;;;;;;1999.90;999.90;;;;;;;19.44;32.34;96049.56;5116576;27;20044;-65
2023/11/20 08:31:44;;;;;;;1999.90;999.90;;;;;;;18.98;33.45;96062.06;5116411;28;20040;-62
2023/11/20 08:34:11;;;;;;;1999.90;999.90;;;;;;;18.73;33.51;96064.88;5116380;28;20075;-63
2023/11/20 08:36:38;;;;;;;1999.90;999.90;;;;;;;18.61;32.98;96057.88;5115286;28;20051;-63
2023/11/20 08:39:11;;;;;;;1999.90;999.90;;;;;;;18.52;33.20;96043.56;5116580;28;20040;-63
2023/11/20 08:41:39;;;;;;;1999.90;999.90;;;;;;;18.13;33.63;96030.66;5116291;27;20128;-65
2023/11/20 08:44:08;;;;;;;1999.90;999.90;;;;;;;17.87;33.83;96033.44;5116211;28;20043;-63
2023/11/20 08:46:35;;;;;;;1999.90;999.90;;;;;;;17.76;34.69;96039.56;5116198;28;20090;-63
2023/11/20 08:49:06;;;;;;;1999.90;999.90;;;;;;;17.65;35.16;96028.00;5116059;28;20059;-64
2023/11/20 08:51:34;;;;;;;1999.90;999.90;;;;;;;17.16;34.85;96025.34;5116063;28;20040;-66
2023/11/20 08:54:01;;;;;;;1999.90;999.90;;;;;;;17.10;34.85;96007.31;5115945;28;20133;-62
2023/11/20 08:56:28;;;;;;;1999.90;999.90;;;;;;;16.96;35.92;96016.22;5116045;28;20104;-66
2023/11/20 08:58:55;;;;;;;1999.90;999.90;;;;;;;17.02;35.19;96023.72;5116085;28;20050;-65
2023/11/20 09:01:33;;;;;;;1999.90;999.90;;;;;;;17.17;34.65;96016.50;5115890;28;20047;-64
2023/11/20 09:04:00;;;;;;;1999.90;999.90;;;;;;;17.24;35.56;96008.94;5115835;28;20048;-65
2023/11/20 09:06:29;;;;;;;1999.90;999.90;;;;;;;17.40;34.67;96016.56;5115711;28;20100;-65
2023/11/20 09:08:57;;;;;;;1999.90;999.90;;;;;;;17.66;33.89;96015.59;5115903;28;20050;-64
2023/11/20 09:11:24;;;;;;;1999.90;999.90;;;;;;;17.91;33.98;96024.34;5115777;28;20122;-63
2023/11/20 09:13:51;;;;;;;1999.90;999.90;;;;;;;18.10;33.31;96017.63;5115585;28;20047;-65
2023/11/20 09:16:20;;;;;;;1999.90;999.90;;;;;;;18.13;31.71;96012.97;5115726;28;20509;-61
2023/11/20 09:18:48;;;;;;;1999.90;999.90;;;;;;;17.99;32.01;96007.84;5115543;28;20476;-62
2023/11/20 09:21:15;;;;;;;1999.90;999.90;;;;;;;17.84;32.13;96020.44;5115520;28;20050;-65
2023/11/20 09:23:44;;;;;;;1999.90;999.90;;;;;;;17.58;33.22;96017.97;5115703;28;20043;-63
2023/11/20 09:26:12;;;;;;;1999.90;999.90;;;;;;;17.57;33.85;96008.38;5115372;28;20447;-65
2023/11/20 09:28:40;;;;;;;1999.90;999.90;;;;;;;17.64;32.70;96010.41;5115315;28;20083;-62
2023/11/20 09:31:07;;;;;;;1999.90;999.90;;;;;;;17.46;33.40;96010.00;5115215;28;20051;-61
2023/11/20 09:33:36;;;;;;;1999.90;999.90;;;;;;;17.35;33.48;96008.16;5115242;28;20055;-62
2023/11/20 09:36:03;;;;;;;1999.90;999.90;;;;;;;17.45;32.82;96003.03;5115434;28;20051;-64
2023/11/20 09:38:30;;;;;;;1999.90;999.90;;;;;;;17.34;33.30;96010.91;5115223;28;20052;-63
2023/11/20 09:41:01;;;;;;;1999.90;999.90;;;;;;;17.41;32.65;96005.06;5115158;27;20105;-60
2023/11/20 09:43:30;;;;;;;1999.90;999.90;;;;;;;17.46;33.57;96009.16;5115179;28;20444;-62
2023/11/20 09:46:00;;;;;;;1999.90;999.90;;;;;;;17.41;33.03;95997.13;5114989;27;20048;-61
2023/11/20 09:48:33;;;;;;;1999.90;999.90;;;;;;;17.36;33.52;95999.28;5114903;27;20098;-62
2023/11/20 09:51:01;;;;;;;1999.90;999.90;;;;;;;17.42;33.00;95992.69;5114980;28;20044;-65
2023/11/20 09:53:34;;;;;;;1999.90;999.90;;;;;;;17.54;32.77;95980.34;5114839;28;20059;-64
2023/11/20 09:56:04;;;;;;;1999.90;999.90;;;;;;;17.65;32.81;95976.88;5114875;28;20105;-65
2023/11/20 09:58:31;;;;;;;1999.90;999.90;;;;;;;17.69;33.59;95965.13;5114859;28;20052;-64
2023/11/20 10:01:04;;;;;;;1999.90;999.90;;;;;;;17.78;31.23;95968.84;5114780;28;20054;-65
2023/11/20 10:03:32;;;;;;;1999.90;999.90;;;;;;;17.89;32.90;95960.97;5114802;28;20043;-63
2023/11/20 10:06:01;;;;;;;1999.90;999.90;;;;;;;18.00;32.52;95956.66;5114525;28;20113;-62
2023/11/20 10:08:30;;;;;;;1999.90;999.90;;;;;;;18.09;33.31;95966.50;5114621;28;20558;-64
2023/11/20 10:11:00;;;;;;;1999.90;999.90;;;;;;;18.12;31.25;95955.69;5114717;28;20048;-61
2023/11/20 10:13:30;;;;;;;1999.90;999.90;;;;;;;18.06;31.76;95964.06;5114433;28;20052;-65
2023/11/20 10:15:57;;;;;;;;;;;;;;;18.00;32.52;95975.16;5115067;28;20552;-65
2023/11/20 10:18:24;;;;;;;1999.90;999.90;;;;;;;17.98;32.20;95953.25;5114383;28;20018;-65
2023/11/20 10:20:52;;;;;;;1999.90;999.90;;;;;;;17.84;32.73;95963.09;5114314;28;20405;-64
2023/11/20 10:23:20;;;;;;;1999.90;999.90;;;;;;;17.94;31.50;95984.38;5114383;28;20132;-64
2023/11/20 10:25:48;;;;;;;1999.90;999.90;;;;;;;17.88;31.61;95977.78;5114386;28;20405;-64
2023/11/20 10:28:15;;;;;;;1999.90;999.90;;;;;;;17.89;32.92;95970.69;5114087;28;20044;-65
2023/11/20 10:30:45;;;;;;;1999.90;999.90;;;;;;;17.93;33.11;95964.19;5114214;28;20093;-64
2023/11/20 10:33:17;;;;;;;1999.90;999.90;;;;;;;17.61;32.91;95957.75;5113993;28;20052;-62
2023/11/20 10:35:44;;;;;;;1999.90;999.90;;;;;;;17.33;32.92;95975.72;5114187;28;20085;-64
2023/11/20 10:38:12;;;;;;;1999.90;999.90;;;;;;;17.22;32.39;95955.34;5114142;28;20079;-66
2023/11/20 10:40:40;;;;;;;1999.90;999.90;;;;;;;17.00;32.76;95950.78;5114037;28;20083;-64
2023/11/20 10:43:09;;;;;;;1999.90;999.90;;;;;;;16.98;33.02;95958.81;5114109;28;20134;-62
2023/11/20 10:45:37;;;;;;;1999.90;999.90;;;;;;;17.08;33.14;95951.09;5113942;28;20048;-64
2023/11/20 10:48:08;;;;;;;1999.90;999.90;;;;;;;17.11;33.64;95942.09;5114006;28;20120;-63
2023/11/20 10:50:36;;;;;;;1999.90;999.90;;;;;;;17.10;33.37;95951.81;5114129;28;20047;-63
2023/11/20 10:53:07;;;;;;;1999.90;999.90;;;;;;;17.18;33.12;95945.97;5113847;28;20062;-64
2023/11/20 10:55:50;;;;;;;1999.90;999.90;;;;;;;17.10;32.83;95948.34;5113898;28;20489;-62
2023/11/20 10:58:17;;;;;;;1999.90;999.90;;;;;;;17.04;33.26;95963.66;5113768;28;20134;-63